Shortt Gap, VA (24647)

2:35 AM EST on December 03, 2016 (GMT -0500)
KM4HDM - Richlands, Virginia | | Change Station

Elev 1972 ft 37.09 °N, 81.83 °W | Updated 35 seconds ago

Overcast
Overcast
33.4 °F
Feels Like 33 °F
N
0.0
Wind Variable Wind from WSW

Today
High -- | Low -- °F
--% Chance of Precip.
Yesterday
High -- | Low -- °F
Precip. -- in
Pressure 30.25 in
Visibility 10.0 miles
Clouds Overcast 1500 ft
Windchill 33 °F
Dew Point 28 °F
Humidity 83%
Rainfall 0.00 in
Snow Depth Not available.
7:24 AM 5:10 PM
Waxing Crescent, 13% visible
METAR KJFZ 030655Z AUTO 31004KT 10SM OVC015 00/M02 A3025 RMK AO2 T10021023
Pressure 30.25 in
Visibility 10.0 miles
Clouds Overcast 1500 ft
Windchill 33 °F
Dew Point 28 °F
Humidity 83%
Rainfall 0.00 in
Snow Depth Not available.
7:24 AM 5:10 PM
Waxing Crescent, 13% visible
METAR KJFZ 030655Z AUTO 31004KT 10SM OVC015 00/M02 A3025 RMK AO2 T10021023

10-Day Weather Forecast

Almanac

Astronomy

Dec. 03, 2016 Rise Set
Actual Time
Civil Twilight
Nautical Twilight
Astronomical Twilight
Moon
Length of Visible Light
Length of Day
Tomorrow will be .
, % of the Moon is Illuminated

Today's Extremes

State Highs State Lows

Community

WunderPhotos

Upload Photos

1,955,432 photos uploaded!

WunderBlog® & News

Nearby

Air Quality

  Air Quality AQ Index Pollutant
Not available.

Snow Depth

Station Depth Elevation

Earthquake Activity

City Distance Mag. Time & Date
Minimum magnitude displayed is 2.5.

Coastal Water Temperatures

Place Temperature

Stations

Nearby Weather Stations

Station Location Temp. Windchill Dew Point Humidity Wind Precip. Elev Updated Type
                   

Watches & Warnings

There are currently no watches in effect.